Szczecin, Poland
Current Conditions -  °F | °C
As of 6:30 AM on Thursday 23 Oct 2014 (Local Time) from EPSC Reporting Station
Broken Clouds Broken Clouds  
Wind Chill: 46°   Ceiling: 1300
Heat Index: 48°   Visibility: 6mi
Dew Point: 46°   Wind: 5mph
Humidity: 93%   Direction: 30°NNE
Pressure: 30.03"   Gusts: NA
Location:  53.43°N, 14.53°E
Report Text: EPSC 230430Z 03004KT 9999 BKN013 09/08 Q1017
Loading
Personal Weather Stations






























Interactive Weather Map
Tropical Storm Tracking
New forecast layout! Learn more

10-Day Weather Forecast

Advertisements
Track Severe Weather on mobile